createdAt,value
2022-11-01T00:02:11.284Z,79.20
2022-11-01T00:04:37.974Z,79.20
2022-11-01T00:07:08.282Z,79.20
2022-11-01T00:09:35.036Z,79.20
2022-11-01T00:12:01.879Z,79.20
2022-11-01T00:14:28.718Z,79.30
2022-11-01T00:16:55.604Z,79.40
2022-11-01T00:19:22.520Z,79.60
2022-11-01T00:21:49.298Z,79.80
2022-11-01T00:24:15.998Z,79.90
2022-11-01T00:26:42.843Z,80.00
2022-11-01T00:29:11.515Z,80.10
2022-11-01T00:31:38.256Z,80.20
2022-11-01T00:34:06.463Z,80.20
2022-11-01T00:36:35.957Z,80.30
2022-11-01T00:39:06.195Z,80.50
2022-11-01T00:41:40.020Z,80.60
2022-11-01T00:44:06.876Z,80.60
2022-11-01T00:46:34.388Z,80.60
2022-11-01T00:49:01.369Z,80.70
2022-11-01T00:51:29.632Z,80.70
2022-11-01T00:53:56.369Z,80.70
2022-11-01T00:56:23.193Z,80.70
2022-11-01T00:58:49.967Z,81.50
2022-11-01T01:01:17.035Z,80.80
2022-11-01T01:03:44.039Z,80.80
2022-11-01T01:06:10.798Z,80.70
2022-11-01T01:08:37.550Z,80.70
2022-11-01T01:11:04.370Z,80.70
2022-11-01T01:13:31.087Z,80.70
2022-11-01T01:15:57.896Z,80.70
2022-11-01T01:18:24.649Z,80.60
2022-11-01T01:20:51.334Z,80.70
2022-11-01T01:23:18.255Z,80.70
2022-11-01T01:25:47.989Z,80.80
2022-11-01T01:28:17.655Z,80.80
2022-11-01T01:30:44.492Z,80.70
2022-11-01T01:33:13.946Z,80.70
2022-11-01T01:35:40.685Z,80.70
2022-11-01T01:38:10.455Z,80.70
2022-11-01T01:40:37.185Z,80.70
2022-11-01T01:43:11.445Z,80.80
2022-11-01T01:45:42.014Z,81.60
2022-11-01T01:48:25.814Z,80.70
2022-11-01T01:50:59.597Z,80.70
2022-11-01T01:53:38.113Z,80.80
2022-11-01T01:56:10.364Z,80.70
2022-11-01T01:58:41.762Z,80.70
2022-11-01T02:01:08.734Z,80.70
2022-11-01T02:03:36.899Z,80.60
2022-11-01T02:06:08.216Z,80.70
2022-11-01T02:08:36.926Z,80.70
2022-11-01T02:11:05.897Z,80.60
2022-11-01T02:13:32.858Z,80.60
2022-11-01T02:16:29.368Z,80.70
2022-11-01T02:19:11.189Z,80.70
2022-11-01T02:21:59.130Z,80.60
2022-11-01T02:24:37.383Z,80.60
2022-11-01T02:27:18.917Z,80.60
2022-11-01T02:30:05.123Z,80.60
2022-11-01T02:32:38.798Z,80.60
2022-11-01T02:35:13.720Z,80.60
2022-11-01T02:37:52.662Z,80.70
2022-11-01T02:40:51.320Z,80.70
2022-11-01T02:43:26.492Z,80.70
2022-11-01T02:45:53.594Z,80.80
2022-11-01T02:48:23.870Z,80.90
2022-11-01T02:50:55.966Z,80.90
2022-11-01T02:53:23.057Z,80.80
2022-11-01T02:55:52.621Z,80.90
2022-11-01T02:58:24.444Z,80.70
2022-11-01T03:00:52.231Z,80.70
2022-11-01T03:03:35.351Z,80.70
2022-11-01T03:06:05.148Z,80.60
2022-11-01T03:08:41.979Z,80.70
2022-11-01T03:11:23.898Z,80.70
2022-11-01T03:14:00.675Z,80.60
2022-11-01T03:16:39.418Z,80.60
2022-11-01T03:19:25.247Z,80.50
2022-11-01T03:22:10.153Z,80.40
2022-11-01T03:24:49.307Z,80.20
2022-11-01T03:27:20.616Z,80.10
2022-11-01T03:29:57.134Z,80.00
2022-11-01T03:32:33.459Z,79.90
2022-11-01T03:35:04.116Z,79.30
2022-11-01T03:37:32.666Z,78.90
2022-11-01T03:40:04.584Z,77.90
2022-11-01T03:42:33.111Z,77.00
2022-11-01T03:45:06.278Z,76.10
2022-11-01T03:47:32.997Z,75.80
2022-11-01T03:50:13.584Z,75.40
2022-11-01T03:52:40.437Z,75.30
2022-11-01T03:55:19.255Z,74.90
2022-11-01T03:57:54.204Z,74.90
2022-11-01T04:00:35.959Z,74.70
2022-11-01T04:03:03.182Z,74.40
2022-11-01T04:05:31.871Z,74.60
2022-11-01T04:07:58.647Z,74.30
2022-11-01T04:10:27.109Z,74.30
2022-11-01T04:12:53.957Z,74.80
2022-11-01T04:15:41.307Z,74.00
2022-11-01T04:18:35.692Z,74.00
2022-11-01T04:21:16.962Z,73.70
2022-11-01T04:23:44.969Z,73.50
2022-11-01T04:26:17.443Z,73.60
2022-11-01T04:28:56.679Z,73.50
2022-11-01T04:31:37.045Z,73.40
2022-11-01T04:34:05.589Z,73.50
2022-11-01T04:36:32.632Z,73.50
2022-11-01T04:38:59.601Z,73.50
2022-11-01T04:41:28.363Z,73.50
2022-11-01T04:43:57.353Z,73.40
2022-11-01T04:46:24.349Z,73.50
2022-11-01T04:48:51.048Z,73.50
2022-11-01T04:51:17.781Z,73.50
2022-11-01T04:53:44.467Z,73.40
2022-11-01T04:56:14.084Z,73.30
2022-11-01T04:58:44.938Z,73.30
2022-11-01T05:01:13.469Z,73.20
2022-11-01T05:03:40.316Z,73.20
2022-11-01T05:06:07.247Z,73.20
2022-11-01T05:08:34.159Z,73.10
2022-11-01T05:11:00.922Z,73.00
2022-11-01T05:13:27.706Z,73.20
2022-11-01T05:16:17.854Z,72.90
2022-11-01T05:18:43.150Z,72.90
2022-11-01T05:21:10.003Z,72.80
2022-11-01T05:23:36.775Z,72.80
2022-11-01T05:26:03.469Z,72.50
2022-11-01T05:28:30.177Z,72.50
2022-11-01T05:30:58.137Z,72.40
2022-11-01T05:33:24.939Z,72.30
2022-11-01T05:35:51.682Z,71.90
2022-11-01T05:38:18.412Z,72.10
2022-11-01T05:40:47.617Z,71.90
2022-11-01T05:43:14.934Z,72.00
2022-11-01T05:45:43.768Z,71.80
2022-11-01T05:48:11.875Z,72.60
2022-11-01T05:50:38.677Z,71.50
2022-11-01T05:53:08.982Z,70.90
2022-11-01T05:55:36.498Z,70.70
2022-11-01T05:58:03.354Z,70.70
2022-11-01T06:00:34.510Z,70.70
2022-11-01T06:03:01.984Z,70.30
2022-11-01T06:05:29.776Z,70.40
2022-11-01T06:07:57.402Z,70.10
2022-11-01T06:10:24.285Z,70.10
2022-11-01T06:12:51.109Z,70.20
2022-11-01T06:15:18.075Z,70.20
2022-11-01T06:17:44.870Z,70.60
2022-11-01T06:20:12.270Z,70.60
2022-11-01T06:22:39.476Z,70.70
2022-11-01T06:25:06.812Z,70.70
2022-11-01T06:27:33.554Z,70.90
2022-11-01T06:30:00.264Z,71.00
2022-11-01T06:32:31.085Z,71.00
2022-11-01T06:34:57.834Z,70.70
2022-11-01T06:37:24.578Z,70.90
2022-11-01T06:39:51.288Z,70.80
2022-11-01T06:42:18.030Z,70.60
2022-11-01T06:44:45.134Z,70.40
2022-11-01T06:47:14.997Z,70.50
2022-11-01T06:49:42.448Z,70.20
2022-11-01T06:52:09.185Z,70.20
2022-11-01T06:54:35.846Z,70.20
2022-11-01T06:57:02.665Z,70.10
2022-11-01T06:59:32.450Z,70.20
2022-11-01T07:01:59.197Z,70.20
2022-11-01T07:04:27.609Z,70.00
2022-11-01T07:06:54.360Z,70.00
2022-11-01T07:09:21.133Z,70.30
2022-11-01T07:11:47.919Z,70.20
2022-11-01T07:14:14.666Z,70.20
2022-11-01T07:16:44.553Z,70.00
2022-11-01T07:19:14.114Z,70.20
2022-11-01T07:21:43.656Z,70.40
2022-11-01T07:24:10.317Z,70.40
2022-11-01T07:26:37.087Z,70.40
2022-11-01T07:29:04.006Z,70.60
2022-11-01T07:31:33.214Z,70.60
2022-11-01T07:34:00.207Z,70.60
2022-11-01T07:36:27.001Z,70.50
2022-11-01T07:38:53.689Z,70.60
2022-11-01T07:41:20.424Z,70.60
2022-11-01T07:43:47.111Z,70.20
2022-11-01T07:46:13.789Z,70.20
2022-11-01T07:48:40.539Z,70.10
2022-11-01T07:51:09.991Z,70.20
2022-11-01T07:53:36.712Z,70.30
2022-11-01T07:56:03.656Z,70.20
2022-11-01T07:58:30.354Z,70.20
2022-11-01T08:00:57.317Z,69.90
2022-11-01T08:03:24.074Z,70.00
2022-11-01T08:05:50.888Z,70.00
2022-11-01T08:08:17.849Z,70.40
2022-11-01T08:10:44.594Z,70.50
2022-11-01T08:13:19.173Z,69.50
2022-11-01T08:15:47.432Z,68.30
2022-11-01T08:18:15.206Z,67.00
2022-11-01T08:20:42.305Z,66.30
2022-11-01T08:23:09.575Z,65.10
2022-11-01T08:25:36.537Z,64.40
2022-11-01T08:28:12.970Z,63.50
2022-11-01T08:30:41.811Z,63.40
2022-11-01T08:33:08.834Z,62.80
2022-11-01T08:35:35.896Z,62.50
2022-11-01T08:38:03.867Z,62.20
2022-11-01T08:40:32.252Z,61.80
2022-11-01T08:42:59.351Z,61.80
2022-11-01T08:45:26.749Z,63.00
2022-11-01T08:48:03.438Z,63.30
2022-11-01T08:50:30.561Z,63.20
2022-11-01T08:53:00.165Z,63.70
2022-11-01T08:55:27.143Z,64.20
2022-11-01T08:57:54.018Z,64.60
2022-11-01T09:00:21.377Z,64.80
2022-11-01T09:02:48.126Z,65.40
2022-11-01T09:05:15.013Z,65.20
2022-11-01T09:07:44.505Z,65.50
2022-11-01T09:10:11.960Z,65.50
2022-11-01T09:15:10.766Z,65.80
2022-11-01T09:17:37.728Z,66.00
2022-11-01T09:20:05.210Z,65.80
2022-11-01T09:22:31.885Z,66.00
2022-11-01T09:24:58.853Z,65.70
2022-11-01T09:27:26.775Z,65.90
2022-11-01T09:29:53.761Z,65.50
2022-11-01T09:32:20.629Z,65.90
2022-11-01T09:34:49.096Z,66.00
2022-11-01T09:37:16.622Z,66.00
2022-11-01T09:39:43.492Z,66.00
2022-11-01T09:42:28.462Z,65.70
2022-11-01T09:45:01.841Z,65.80
2022-11-01T09:47:30.203Z,65.40
2022-11-01T09:50:22.436Z,65.70
2022-11-01T09:52:50.867Z,65.40
2022-11-01T09:55:23.388Z,65.80
2022-11-01T09:58:08.944Z,66.00
2022-11-01T10:00:43.728Z,65.60
2022-11-01T10:03:43.935Z,65.60
2022-11-01T10:06:19.009Z,64.20
2022-11-01T10:08:51.323Z,65.60
2022-11-01T10:11:42.027Z,65.40
2022-11-01T10:14:14.338Z,65.70
2022-11-01T10:16:49.514Z,66.40
2022-11-01T10:19:22.779Z,65.50
2022-11-01T10:22:01.093Z,65.30
2022-11-01T10:25:11.435Z,65.20
2022-11-01T10:28:03.595Z,64.90
2022-11-01T10:30:49.114Z,65.10
2022-11-01T10:33:25.977Z,65.30
2022-11-01T10:36:12.120Z,64.80
2022-11-01T10:41:53.705Z,64.30
2022-11-01T10:44:34.845Z,64.60
2022-11-01T10:47:07.140Z,63.90
2022-11-01T10:50:04.662Z,64.70
2022-11-01T10:52:42.282Z,64.50
2022-11-01T10:55:14.295Z,65.10
2022-11-01T10:58:03.127Z,63.90
2022-11-01T11:00:32.649Z,64.00
2022-11-01T11:03:07.909Z,64.20
2022-11-01T11:05:35.021Z,64.40
2022-11-01T11:08:05.174Z,63.90
2022-11-01T11:10:32.583Z,64.20
2022-11-01T11:13:05.254Z,64.00
2022-11-01T11:16:01.593Z,63.40
2022-11-01T11:18:35.480Z,63.40
2022-11-01T11:21:08.700Z,63.40
2022-11-01T11:23:42.180Z,63.20
2022-11-01T11:26:13.442Z,62.90
2022-11-01T11:28:44.494Z,63.60
2022-11-01T11:31:25.262Z,63.60
2022-11-01T11:34:09.298Z,63.30
2022-11-01T11:36:42.048Z,63.00
2022-11-01T11:39:29.343Z,63.20
2022-11-01T11:42:12.077Z,62.80
2022-11-01T11:44:42.181Z,61.10
2022-11-01T11:47:34.591Z,62.30
2022-11-01T11:50:19.297Z,62.80
2022-11-01T11:53:20.300Z,62.50
2022-11-01T11:55:56.053Z,62.80
2022-11-01T11:58:48.424Z,62.50
2022-11-01T12:01:21.459Z,62.40
2022-11-01T12:04:07.328Z,62.50
2022-11-01T12:06:42.251Z,62.50
2022-11-01T12:09:42.645Z,62.00
2022-11-01T12:12:16.726Z,62.30
2022-11-01T12:14:43.576Z,61.60
2022-11-01T12:17:29.475Z,61.70
2022-11-01T12:20:09.840Z,62.20
2022-11-01T12:22:39.108Z,62.00
2022-11-01T12:25:14.000Z,62.20
2022-11-01T12:27:56.712Z,62.30
2022-11-01T12:30:25.115Z,62.10
2022-11-01T12:32:56.481Z,62.20
2022-11-01T12:35:29.490Z,61.30
2022-11-01T12:38:34.625Z,61.20
2022-11-01T12:41:16.114Z,61.30
2022-11-01T12:43:50.258Z,61.50
2022-11-01T12:46:23.991Z,61.40
2022-11-01T12:48:57.702Z,61.10
2022-11-01T12:51:44.026Z,61.20
2022-11-01T12:54:20.031Z,61.60
2022-11-01T12:56:46.802Z,61.90
2022-11-01T12:59:18.434Z,61.70
2022-11-01T13:02:00.048Z,61.20
2022-11-01T13:05:02.312Z,61.50
2022-11-01T13:07:53.659Z,61.20
2022-11-01T13:10:43.864Z,60.40
2022-11-01T13:13:17.243Z,60.40
2022-11-01T13:16:12.856Z,61.00
2022-11-01T13:18:55.578Z,61.10
2022-11-01T13:21:51.749Z,60.90
2022-11-01T13:24:55.662Z,61.00
2022-11-01T13:27:32.128Z,60.80
2022-11-01T13:30:05.338Z,59.90
2022-11-01T13:32:44.707Z,60.20
2022-11-01T13:35:23.270Z,59.50
2022-11-01T13:37:49.894Z,59.30
2022-11-01T13:40:38.576Z,59.50
2022-11-01T13:43:12.747Z,59.50
2022-11-01T13:46:07.753Z,59.30
2022-11-01T13:48:43.423Z,59.50
2022-11-01T13:51:47.955Z,59.40
2022-11-01T13:54:20.926Z,59.10
2022-11-01T13:56:58.328Z,59.20
2022-11-01T13:59:44.811Z,59.20
2022-11-01T14:02:53.067Z,59.20
2022-11-01T14:05:20.176Z,58.60
2022-11-01T14:07:46.820Z,59.00
2022-11-01T14:10:20.140Z,59.00
2022-11-01T14:13:07.150Z,59.20
2022-11-01T14:15:39.512Z,59.30
2022-11-01T14:18:10.684Z,59.40
2022-11-01T14:20:45.916Z,59.30
2022-11-01T14:23:27.942Z,58.90
2022-11-01T14:26:23.022Z,59.20
2022-11-01T14:28:51.840Z,59.50
2022-11-01T14:31:22.862Z,59.40
2022-11-01T14:33:54.741Z,59.30
2022-11-01T14:36:27.313Z,59.20
2022-11-01T14:38:56.596Z,59.10
2022-11-01T14:41:30.074Z,59.00
2022-11-01T14:44:06.059Z,58.80
2022-11-01T14:46:39.095Z,59.00
2022-11-01T14:49:27.052Z,59.10
2022-11-01T14:52:08.856Z,59.20
2022-11-01T14:54:51.108Z,59.20
2022-11-01T14:57:25.969Z,59.50
2022-11-01T14:59:53.984Z,59.30
2022-11-01T15:02:22.757Z,59.20
2022-11-01T15:04:52.819Z,59.30
2022-11-01T15:07:30.631Z,59.30
2022-11-01T15:10:07.491Z,59.50
2022-11-01T15:12:47.501Z,59.30
2022-11-01T15:15:21.953Z,59.40
2022-11-01T15:18:01.957Z,59.40
2022-11-01T15:20:38.697Z,59.40
2022-11-01T15:23:10.875Z,59.50
2022-11-01T15:25:40.619Z,59.50
2022-11-01T15:28:07.488Z,59.70
2022-11-01T15:30:34.830Z,59.60
2022-11-01T15:33:27.910Z,59.70
2022-11-01T15:35:55.438Z,59.80
2022-11-01T15:38:23.485Z,59.90
2022-11-01T15:40:53.340Z,59.90
2022-11-01T15:43:25.159Z,60.00
2022-11-01T15:46:00.117Z,60.10
2022-11-01T15:48:35.727Z,60.10
2022-11-01T15:51:09.331Z,60.30
2022-11-01T15:53:38.830Z,60.30
2022-11-01T15:56:18.969Z,60.40
2022-11-01T15:58:53.716Z,60.50
2022-11-01T16:01:25.011Z,60.60
2022-11-01T16:04:03.405Z,60.70
2022-11-01T16:06:45.748Z,60.70
2022-11-01T16:09:31.687Z,60.70
2022-11-01T16:12:00.534Z,60.90
2022-11-01T16:14:29.422Z,60.90
2022-11-01T16:17:07.547Z,61.00
2022-11-01T16:19:51.632Z,61.10
2022-11-01T16:22:35.962Z,61.20
2022-11-01T16:25:04.222Z,61.30
2022-11-01T16:27:30.995Z,61.20
2022-11-01T16:29:57.917Z,61.30
2022-11-01T16:32:30.928Z,61.40
2022-11-01T16:35:00.248Z,61.40
2022-11-01T16:37:32.852Z,61.40
2022-11-01T16:40:23.138Z,61.50
2022-11-01T16:42:49.889Z,61.50
2022-11-01T16:45:16.701Z,61.40
2022-11-01T16:47:43.504Z,61.50
2022-11-01T16:50:20.759Z,61.50
2022-11-01T16:52:47.671Z,61.60
2022-11-01T16:55:14.858Z,61.70
2022-11-01T16:57:45.935Z,61.70
2022-11-01T17:00:14.609Z,61.70
2022-11-01T17:02:42.020Z,61.70
2022-11-01T17:05:20.982Z,61.70
2022-11-01T17:07:49.175Z,61.90
2022-11-01T17:10:31.060Z,61.90
2022-11-01T17:12:58.411Z,61.80
2022-11-01T17:15:27.032Z,61.90
2022-11-01T17:17:54.357Z,62.00
2022-11-01T17:20:26.597Z,62.10
2022-11-01T17:22:57.728Z,62.10
2022-11-01T17:25:28.735Z,62.10
2022-11-01T17:27:56.444Z,62.20
2022-11-01T17:30:23.646Z,62.20
2022-11-01T17:32:50.626Z,62.40
2022-11-01T17:35:18.625Z,62.40
2022-11-01T17:37:47.290Z,62.40
2022-11-01T17:40:25.228Z,62.40
2022-11-01T17:42:52.495Z,62.60
2022-11-01T17:45:19.822Z,62.60
2022-11-01T17:47:46.636Z,62.70
2022-11-01T17:50:15.348Z,62.90
2022-11-01T17:52:42.901Z,62.90
2022-11-01T17:55:11.112Z,63.00
2022-11-01T17:57:43.638Z,63.00
2022-11-01T18:00:11.199Z,63.00
2022-11-01T18:02:38.030Z,63.10
2022-11-01T18:05:05.165Z,63.10
2022-11-01T18:07:41.122Z,63.10
2022-11-01T18:10:22.886Z,63.20
2022-11-01T18:13:17.294Z,63.20
2022-11-01T18:15:49.967Z,63.20
2022-11-01T18:18:39.144Z,64.10
2022-11-01T18:21:21.038Z,63.20
2022-11-01T18:23:50.059Z,63.20
2022-11-01T18:26:21.145Z,63.20
2022-11-01T18:28:47.872Z,63.20
2022-11-01T18:31:18.007Z,63.20
2022-11-01T18:34:16.820Z,63.30
2022-11-01T18:36:57.310Z,63.30
2022-11-01T18:39:35.989Z,63.40
2022-11-01T18:42:08.398Z,63.50
2022-11-01T18:44:35.250Z,63.50
2022-11-01T18:47:24.468Z,63.50
2022-11-01T18:49:52.068Z,63.50
2022-11-01T18:52:19.736Z,63.60
2022-11-01T18:54:56.999Z,63.60
2022-11-01T18:57:24.795Z,63.80
2022-11-01T18:59:53.697Z,63.80
2022-11-01T19:02:27.586Z,63.80
2022-11-01T19:05:10.900Z,63.90
2022-11-01T19:08:04.607Z,63.90
2022-11-01T19:10:24.570Z,64.00
2022-11-01T19:12:54.798Z,64.00
2022-11-01T19:15:25.801Z,64.00
2022-11-01T19:17:55.380Z,64.10
2022-11-01T19:20:27.929Z,64.10
2022-11-01T19:23:01.556Z,64.10
2022-11-01T19:25:31.032Z,64.10
2022-11-01T19:28:02.821Z,64.10
2022-11-01T19:30:32.238Z,64.20
2022-11-01T19:33:35.541Z,64.20
2022-11-01T19:36:26.726Z,64.30
2022-11-01T19:38:55.878Z,64.30
2022-11-01T19:41:29.091Z,64.40
2022-11-01T19:44:28.085Z,64.40
2022-11-01T19:47:16.293Z,64.40
2022-11-01T19:49:43.434Z,64.50
2022-11-01T19:52:10.158Z,64.50
2022-11-01T19:54:40.374Z,64.60
2022-11-01T19:57:26.999Z,64.80
2022-11-01T19:59:56.032Z,64.80
2022-11-01T20:02:23.118Z,64.80
2022-11-01T20:04:57.728Z,64.80
2022-11-01T20:07:26.914Z,64.80
2022-11-01T20:09:58.420Z,65.00
2022-11-01T20:12:25.610Z,65.00
2022-11-01T20:14:52.521Z,65.10
2022-11-01T20:17:19.537Z,65.10
2022-11-01T20:19:46.211Z,65.10
2022-11-01T20:22:13.073Z,65.10
2022-11-01T20:24:39.868Z,65.30
2022-11-01T20:27:06.670Z,65.20
2022-11-01T20:29:33.558Z,65.30
2022-11-01T20:32:03.090Z,65.20
2022-11-01T20:34:29.850Z,65.30
2022-11-01T20:37:22.581Z,65.30
2022-11-01T20:39:47.944Z,65.40
2022-11-01T20:42:15.132Z,65.60
2022-11-01T20:44:42.545Z,65.70
2022-11-01T20:47:09.229Z,65.60
2022-11-01T20:49:36.022Z,66.70
2022-11-01T20:52:26.283Z,65.80
2022-11-01T20:54:50.139Z,66.30
2022-11-01T20:57:27.474Z,66.70
2022-11-01T20:59:56.815Z,67.00
2022-11-01T21:02:23.564Z,68.00
2022-11-01T21:05:14.798Z,67.70
2022-11-01T21:07:46.817Z,68.00
2022-11-01T21:10:33.735Z,68.20
2022-11-01T21:13:02.780Z,68.50
2022-11-01T21:15:40.477Z,68.70
2022-11-01T21:18:07.137Z,69.80
2022-11-01T21:20:44.040Z,69.20
2022-11-01T21:23:37.164Z,69.40
2022-11-01T21:26:24.951Z,69.70
2022-11-01T21:28:55.775Z,69.80
2022-11-01T21:31:28.425Z,69.90
2022-11-01T21:33:56.831Z,70.20
2022-11-01T21:36:39.443Z,70.30
2022-11-01T21:39:35.558Z,70.30
2022-11-01T21:42:27.395Z,70.20
2022-11-01T21:44:56.037Z,70.40
2022-11-01T21:47:28.748Z,70.80
2022-11-01T21:49:55.754Z,71.20
2022-11-01T21:52:23.002Z,71.20
2022-11-01T21:54:49.973Z,71.60
2022-11-01T21:57:17.274Z,71.70
2022-11-01T21:59:44.558Z,71.90
2022-11-01T22:02:14.026Z,72.20
2022-11-01T22:04:41.086Z,72.50
2022-11-01T22:07:11.360Z,72.70
2022-11-01T22:09:41.213Z,72.90
2022-11-01T22:12:08.426Z,73.10
2022-11-01T22:14:35.396Z,73.30
2022-11-01T22:17:05.228Z,73.40
2022-11-01T22:19:32.038Z,73.50
2022-11-01T22:21:58.868Z,73.60
2022-11-01T22:24:26.024Z,73.80
2022-11-01T22:26:53.053Z,74.00
2022-11-01T22:29:19.815Z,74.00
2022-11-01T22:31:46.594Z,74.10
2022-11-01T22:34:13.334Z,74.10
2022-11-01T22:36:41.622Z,74.20
2022-11-01T22:39:18.213Z,74.30
2022-11-01T22:41:45.118Z,74.50
2022-11-01T22:44:18.745Z,74.50
2022-11-01T22:46:59.245Z,74.70
2022-11-01T22:49:33.659Z,74.70
2022-11-01T22:52:03.499Z,74.80
2022-11-01T22:55:12.617Z,75.00
2022-11-01T22:57:56.964Z,74.60
2022-11-01T23:00:32.396Z,74.90
2022-11-01T23:03:20.968Z,75.00
2022-11-01T23:05:56.853Z,75.10
2022-11-01T23:08:27.656Z,75.20
2022-11-01T23:10:54.686Z,75.10
2022-11-01T23:13:59.007Z,75.20
2022-11-01T23:16:29.928Z,75.10
2022-11-01T23:19:03.588Z,75.10
2022-11-01T23:21:30.399Z,75.30
2022-11-01T23:23:57.370Z,75.10
2022-11-01T23:26:24.397Z,75.10
2022-11-01T23:28:53.699Z,75.00
2022-11-01T23:31:21.231Z,75.10
2022-11-01T23:33:49.254Z,74.90
2022-11-01T23:36:29.463Z,74.80
2022-11-01T23:39:06.701Z,74.60
2022-11-01T23:41:35.152Z,74.40
2022-11-01T23:44:13.254Z,74.30
2022-11-01T23:46:42.962Z,74.10
2022-11-01T23:49:23.752Z,73.80
2022-11-01T23:51:50.983Z,73.70
2022-11-01T23:54:47.421Z,73.50
2022-11-01T23:57:19.918Z,73.40
2022-11-01T23:59:50.998Z,73.10
